Terminal Aerodrome Forecast
Issued by NWS Burlington, VT

Home | Current Version | Previous Version | Text Only | Print | Product List | Glossary On
Versions: 1 2 3 4 5 6 7 8 9 10 11 12
034
FTUS41 KBTV 300537
TAFBTV
TAF
KBTV 300537Z 3006/0106 16004KT P6SM BKN130 BKN200
     FM301500 15008KT P6SM OVC150
     FM010000 12005KT P6SM OVC130
     FM010300 12005KT P6SM OVC070=

USA.gov is the U.S. government's official web portal to all federal, state and local government web resources and services.